Time;durP1;ratioP1;P1;durP2;ratioP2;P2;SDS_P1;SDS_P2;PMS_P1;PMS_P2;Temp;Humidity;BMP_temperature;BMP_pressure;BME280_temperature;BME280_humidity;BME280_pressure;Samples;Min_cycle;Max_cycle;Signal;HPM_P1;HPM_P2
2022/07/23 00:00:57;;;;;;;9.33;5.60;;;22.20;1.00;;;;;;5051496;28;20463;-79
2022/07/23 00:03:27;;;;;;;11.97;5.70;;;22.20;1.00;;;;;;5043791;28;20833;-78
2022/07/23 00:06:03;;;;;;;6.97;5.60;;;22.10;1.00;;;;;;5054202;28;20974;-78
2022/07/23 00:08:29;;;;;;;7.93;5.37;;;22.10;1.00;;;;;;5054473;28;20402;-78
2022/07/23 00:11:03;;;;;;;5.90;4.87;;;22.00;1.00;;;;;;5040963;28;20425;-78
2022/07/23 00:13:33;;;;;;;8.03;5.60;;;21.90;1.00;;;;;;5054187;28;20179;-78
2022/07/23 00:16:32;;;;;;;13.13;5.50;;;21.90;1.00;;;;;;5054353;28;20424;-78
2022/07/23 00:19:01;;;;;;;8.27;5.80;;;21.80;1.00;;;;;;5053606;28;20414;-78
2022/07/23 00:21:27;;;;;;;8.77;6.03;;;21.70;1.00;;;;;;5054068;28;20422;-78
2022/07/23 00:23:57;;;;;;;11.83;5.47;;;21.70;1.00;;;;;;5035417;28;20504;-79
2022/07/23 00:26:27;;;;;;;7.40;5.33;;;21.60;1.00;;;;;;5042089;28;20803;-78
2022/07/23 00:28:57;;;;;;;9.23;5.93;;;21.50;1.00;;;;;;5051968;28;20485;-78
2022/07/23 00:31:33;;;;;;;8.90;5.80;;;21.50;1.00;;;;;;5047283;28;20823;-78
2022/07/23 00:34:00;;;;;;;8.40;6.20;;;21.50;1.00;;;;;;5052854;28;20460;-74
2022/07/23 00:36:27;;;;;;;9.13;5.70;;;21.50;1.00;;;;;;5043441;28;20988;-74
2022/07/23 00:38:53;;;;;;;11.23;6.00;;;21.50;1.00;;;;;;5047347;28;20537;-74
2022/07/23 00:41:20;;;;;;;12.93;5.60;;;21.40;1.00;;;;;;5053794;28;20412;-74
2022/07/23 00:43:45;;;;;;;9.47;5.70;;;21.50;1.00;;;;;;5050195;28;20495;-74
2022/07/23 00:46:11;;;;;;;13.97;6.40;;;21.50;1.00;;;;;;5053848;28;21089;-74
2022/07/23 00:48:51;;;;;;;7.30;5.43;;;21.40;1.00;;;;;;5046946;28;20202;-78
2022/07/23 00:51:21;;;;;;;6.43;5.60;;;21.40;1.00;;;;;;5036190;28;20897;-79
2022/07/23 00:53:57;;;;;;;6.80;6.10;;;21.30;1.00;;;;;;5045319;28;20917;-79
2022/07/23 00:56:34;;;;;;;6.60;5.60;;;21.30;1.00;;;;;;5044984;28;20419;-79
2022/07/23 00:59:00;;;;;;;10.73;6.00;;;21.20;1.00;;;;;;5052570;28;20417;-79
2022/07/23 01:01:39;;;;;;;8.60;6.00;;;21.20;1.00;;;;;;5041547;28;20431;-78
2022/07/23 01:04:05;;;;;;;8.50;6.13;;;21.10;1.00;;;;;;5053895;28;20469;-75
2022/07/23 01:06:36;;;;;;;8.10;6.30;;;21.10;1.00;;;;;;5051933;28;20428;-74
2022/07/23 01:09:04;;;;;;;8.27;5.77;;;21.00;1.00;;;;;;5046098;28;20776;-74
2022/07/23 01:11:31;;;;;;;8.00;6.00;;;21.00;1.00;;;;;;5051784;28;20424;-75
2022/07/23 01:13:57;;;;;;;7.33;6.30;;;20.90;1.00;;;;;;5040008;28;20431;-74
2022/07/23 01:16:22;;;;;;;7.47;5.57;;;20.90;1.00;;;;;;5053277;28;20420;-74
2022/07/23 01:18:48;;;;;;;10.40;6.57;;;20.90;1.00;;;;;;5053848;28;20208;-79
2022/07/23 01:21:18;;;;;;;10.70;5.80;;;20.90;1.00;;;;;;5053397;28;20169;-79
2022/07/23 01:23:51;;;;;;;9.23;5.70;;;20.90;1.00;;;;;;5053654;28;20174;-79
2022/07/23 01:26:21;;;;;;;11.40;6.30;;;21.00;1.00;;;;;;5040930;28;20449;-78
2022/07/23 01:28:51;;;;;;;10.40;6.80;;;20.90;1.00;;;;;;5046871;28;21001;-79
2022/07/23 01:31:22;;;;;;;7.93;5.97;;;21.00;1.00;;;;;;5049360;28;20504;-79
2022/07/23 01:33:57;;;;;;;9.87;6.30;;;21.00;1.00;;;;;;5033725;28;20413;-77
2022/07/23 01:36:34;;;;;;;11.43;6.20;;;21.00;1.00;;;;;;5047922;28;20455;-79
2022/07/23 01:39:00;;;;;;;13.73;6.20;;;21.10;1.00;;;;;;5039063;28;20423;-79
2022/07/23 01:41:27;;;;;;;8.57;6.07;;;21.10;1.00;;;;;;5046604;28;20438;-79
2022/07/23 01:44:20;;;;;;;12.53;6.00;;;21.10;1.00;;;;;;5042552;28;20539;-79
2022/07/23 01:47:20;;;;;;;17.13;6.73;;;21.10;1.00;;;;;;5039445;28;20422;-79
2022/07/23 01:49:57;;;;;;;8.90;6.83;;;21.10;1.00;;;;;;5053445;28;20431;-79
2022/07/23 01:52:33;;;;;;;11.03;6.17;;;21.10;1.00;;;;;;5039880;28;20404;-79
2022/07/23 01:55:03;;;;;;;12.53;6.60;;;21.00;1.00;;;;;;5036479;28;20523;-79
2022/07/23 01:57:33;;;;;;;8.83;6.37;;;21.00;1.00;;;;;;5056668;28;20415;-79
2022/07/23 02:00:03;;;;;;;15.73;6.77;;;21.00;1.00;;;;;;5046569;28;20910;-79
2022/07/23 02:02:39;;;;;;;8.57;6.73;;;20.90;1.00;;;;;;5055295;28;20498;-79
2022/07/23 02:05:05;;;;;;;8.60;6.70;;;20.90;1.00;;;;;;5057042;28;20801;-74
2022/07/23 02:07:33;;;;;;;8.77;6.23;;;20.80;1.00;;;;;;5041734;28;20435;-75
2022/07/23 02:10:21;;;;;;;9.50;6.60;;;20.90;1.00;;;;;;5056941;28;20922;-75
2022/07/23 02:12:51;;;;;;;8.07;6.63;;;20.90;1.00;;;;;;5048597;28;20466;-75
2022/07/23 02:15:21;;;;;;;12.90;6.57;;;20.90;1.00;;;;;;5046908;28;20416;-74
2022/07/23 02:17:47;;;;;;;7.50;6.10;;;20.90;1.00;;;;;;5040954;28;20517;-75
2022/07/23 02:20:15;;;;;;;12.77;6.47;;;20.80;1.00;;;;;;5056873;28;20957;-79
2022/07/23 02:22:41;;;;;;;9.70;6.40;;;20.80;1.00;;;;;;5047109;28;20181;-79
2022/07/23 02:25:09;;;;;;;15.53;6.67;;;20.70;1.00;;;;;;5044726;28;20458;-79
2022/07/23 02:27:51;;;;;;;8.53;6.77;;;20.70;1.00;;;;;;5056136;28;20427;-79
2022/07/23 02:30:21;;;;;;;12.27;6.53;;;20.60;1.00;;;;;;5045275;28;20444;-79
2022/07/23 02:33:03;;;;;;;9.07;7.23;;;20.60;1.00;;;;;;5048689;28;20430;-79
2022/07/23 02:35:29;;;;;;;12.03;6.10;;;20.50;1.00;;;;;;5053642;28;20848;-75
2022/07/23 02:37:57;;;;;;;10.77;6.70;;;20.40;1.00;;;;;;5052212;28;20439;-75
2022/07/23 02:40:27;;;;;;;7.77;6.20;;;20.40;1.00;;;;;;5048700;28;20264;-74
2022/07/23 02:42:53;;;;;;;14.60;6.80;;;20.40;1.00;;;;;;5051601;28;20490;-75
2022/07/23 02:45:18;;;;;;;7.37;6.20;;;20.40;1.00;;;;;;5055989;28;20474;-75
2022/07/23 02:47:44;;;;;;;11.43;6.40;;;20.40;1.00;;;;;;5043052;28;20281;-75
2022/07/23 02:50:15;;;;;;;9.80;6.00;;;20.40;1.00;;;;;;5048133;28;20173;-79
2022/07/23 02:53:14;;;;;;;9.90;6.47;;;20.40;1.00;;;;;;5042822;28;20261;-79
2022/07/23 02:55:51;;;;;;;7.70;5.90;;;20.40;1.00;;;;;;5049754;28;20416;-79
2022/07/23 02:58:21;;;;;;;13.17;6.50;;;20.40;1.00;;;;;;5055766;28;20467;-79
2022/07/23 03:01:20;;;;;;;8.90;6.27;;;20.40;1.00;;;;;;5055750;28;20469;-79
2022/07/23 03:03:51;;;;;;;8.23;6.83;;;20.40;1.00;;;;;;5053603;28;20419;-79
2022/07/23 03:06:27;;;;;;;11.13;6.30;;;20.40;1.00;;;;;;5055852;28;20455;-75
2022/07/23 03:08:57;;;;;;;8.93;5.90;;;20.40;1.00;;;;;;5055398;28;20438;-75
2022/07/23 03:11:27;;;;;;;10.50;6.47;;;20.40;1.00;;;;;;5055650;28;20899;-75
2022/07/23 03:13:57;;;;;;;7.67;6.10;;;20.40;1.00;;;;;;5055340;28;20412;-75
2022/07/23 03:16:33;;;;;;;9.20;6.50;;;20.40;1.00;;;;;;5050547;28;20773;-74
2022/07/23 03:18:59;;;;;;;8.83;6.40;;;20.40;1.00;;;;;;5055457;28;20465;-74
2022/07/23 03:21:34;;;;;;;7.10;6.27;;;20.40;1.00;;;;;;5055812;28;20420;-80
2022/07/23 03:24:20;;;;;;;7.80;6.40;;;20.40;1.00;;;;;;5051943;28;20513;-79
2022/07/23 03:27:03;;;;;;;9.00;6.37;;;20.40;1.00;;;;;;5048497;28;21071;-79
2022/07/23 03:29:51;;;;;;;7.37;6.60;;;20.30;1.00;;;;;;5045410;28;21053;-79
2022/07/23 03:32:21;;;;;;;7.57;6.33;;;20.30;1.00;;;;;;5035335;28;20407;-79
2022/07/23 03:34:48;;;;;;;7.73;6.20;;;20.30;1.00;;;;;;5035094;28;20435;-79
2022/07/23 03:37:13;;;;;;;8.70;6.20;;;20.30;1.00;;;;;;5048958;28;20426;-75
2022/07/23 03:39:57;;;;;;;7.97;6.10;;;20.30;1.00;;;;;;5049180;28;20421;-75
2022/07/23 03:42:22;;;;;;;6.57;5.63;;;20.30;1.00;;;;;;5055274;28;20813;-74
2022/07/23 03:44:57;;;;;;;8.90;6.50;;;20.30;1.00;;;;;;5054845;28;20535;-75
2022/07/23 03:47:27;;;;;;;11.73;6.13;;;20.30;1.00;;;;;;5055385;28;20171;-76
2022/07/23 03:49:53;;;;;;;7.07;6.00;;;20.30;1.00;;;;;;5051492;28;20477;-75
2022/07/23 03:52:21;;;;;;;9.67;6.10;;;20.30;1.00;;;;;;5043389;28;20491;-79
2022/07/23 03:54:47;;;;;;;8.73;5.63;;;20.40;1.00;;;;;;5033676;28;20553;-80
2022/07/23 03:57:13;;;;;;;9.63;5.93;;;20.40;1.00;;;;;;5047341;28;20419;-79
2022/07/23 03:59:39;;;;;;;7.43;6.33;;;20.40;1.00;;;;;;5054515;28;20446;-79
2022/07/23 04:02:15;;;;;;;9.40;6.23;;;20.40;1.00;;;;;;5046599;28;20263;-79
2022/07/23 04:04:51;;;;;;;7.97;6.20;;;20.40;1.00;;;;;;5041428;28;20533;-79
2022/07/23 04:07:21;;;;;;;6.23;5.63;;;20.40;1.00;;;;;;5054900;28;20426;-79
2022/07/23 04:09:51;;;;;;;12.50;6.60;;;20.40;1.00;;;;;;5053318;28;20416;-79
2022/07/23 04:12:33;;;;;;;8.20;6.20;;;20.40;1.00;;;;;;5051833;28;20964;-79
2022/07/23 04:15:09;;;;;;;9.50;6.90;;;20.50;1.00;;;;;;5045368;28;20453;-80
2022/07/23 04:17:51;;;;;;;10.30;7.00;;;20.50;1.00;;;;;;5053619;28;20897;-79
2022/07/23 04:20:27;;;;;;;12.83;8.47;;;20.50;1.00;;;;;;5049178;28;20412;-79
2022/07/23 04:22:52;;;;;;;8.73;6.40;;;20.50;1.00;;;;;;5052085;28;20786;-70
2022/07/23 04:25:18;;;;;;;9.77;6.50;;;20.50;1.00;;;;;;5051027;28;20530;-70
2022/07/23 04:27:44;;;;;;;8.90;6.80;;;20.50;1.00;;;;;;5053449;28;20246;-70
2022/07/23 04:30:10;;;;;;;10.70;7.23;;;20.50;1.00;;;;;;5043662;28;20657;-69
2022/07/23 04:32:36;;;;;;;8.17;6.70;;;20.50;1.00;;;;;;5041765;28;20179;-70
2022/07/23 04:35:02;;;;;;;13.13;7.10;;;20.50;1.00;;;;;;5052809;28;20455;-70
2022/07/23 04:37:28;;;;;;;9.70;6.67;;;20.50;1.00;;;;;;5052261;28;20180;-72
2022/07/23 04:39:53;;;;;;;14.70;7.07;;;20.40;1.00;;;;;;5043502;28;20426;-82
2022/07/23 04:42:21;;;;;;;10.90;6.80;;;20.50;1.00;;;;;;5052813;28;20450;-81
2022/07/23 04:44:51;;;;;;;9.40;7.30;;;20.40;1.00;;;;;;5044682;28;20736;-81
2022/07/23 04:47:22;;;;;;;8.47;7.20;;;20.50;1.00;;;;;;5050648;28;20455;-81
2022/07/23 04:49:48;;;;;;;10.70;8.00;;;20.50;1.00;;;;;;5052580;28;20430;-82
2022/07/23 04:52:21;;;;;;;8.93;7.03;;;20.50;1.00;;;;;;5050831;28;20423;-78
2022/07/23 04:54:51;;;;;;;9.70;7.20;;;20.60;1.00;;;;;;5046022;28;20180;-78
2022/07/23 04:57:21;;;;;;;10.57;7.33;;;20.70;1.00;;;;;;5047166;28;20407;-78
2022/07/23 04:59:51;;;;;;;9.10;6.37;;;20.80;1.00;;;;;;5046828;28;20763;-78
2022/07/23 05:02:38;;;;;;;7.50;6.70;;;20.90;1.00;;;;;;5052364;28;20436;-78
2022/07/23 05:05:15;;;;;;;7.80;6.30;;;21.00;1.00;;;;;;5035175;28;20672;-78
2022/07/23 05:07:51;;;;;;;11.90;8.33;;;21.10;1.00;;;;;;5053977;28;20416;-82
2022/07/23 05:10:21;;;;;;;12.10;6.90;;;21.20;1.00;;;;;;5052181;28;20411;-82
2022/07/23 05:12:47;;;;;;;10.93;7.50;;;21.20;1.00;;;;;;5053044;28;20416;-82
2022/07/23 05:15:15;;;;;;;7.83;7.03;;;21.30;1.00;;;;;;5047477;28;20831;-81
2022/07/23 05:17:45;;;;;;;12.40;7.40;;;21.20;1.00;;;;;;5044998;28;20193;-82
2022/07/23 05:20:27;;;;;;;9.27;6.63;;;21.20;1.00;;;;;;5043566;28;20922;-82
2022/07/23 05:22:57;;;;;;;9.07;7.10;;;21.20;1.00;;;;;;5053639;28;20424;-81
2022/07/23 05:25:57;;;;;;;15.37;7.20;;;21.20;1.00;;;;;;5045679;28;20467;-81
2022/07/23 05:28:22;;;;;;;8.60;6.93;;;21.30;1.00;;;;;;5047741;28;20515;-70
2022/07/23 05:30:51;;;;;;;10.20;7.20;;;21.20;1.00;;;;;;5053622;28;20501;-70
2022/07/23 05:33:20;;;;;;;9.90;6.80;;;21.20;1.00;;;;;;5057643;28;20271;-70
2022/07/23 05:35:46;;;;;;;10.67;7.17;;;21.20;1.00;;;;;;5052145;28;20445;-70
2022/07/23 05:38:15;;;;;;;8.87;7.20;;;21.30;1.00;;;;;;5058213;28;20452;-75
2022/07/23 05:40:41;;;;;;;9.13;7.50;;;21.40;1.00;;;;;;5059744;28;20174;-75
2022/07/23 05:43:09;;;;;;;10.93;6.80;;;21.40;1.00;;;;;;5059856;28;20511;-75
2022/07/23 05:45:45;;;;;;;8.63;6.40;;;21.50;1.00;;;;;;5060178;28;20196;-76
2022/07/23 05:48:15;;;;;;;9.37;6.93;;;21.60;1.00;;;;;;5047944;28;20414;-75
2022/07/23 05:50:46;;;;;;;7.87;6.03;;;21.60;1.00;;;;;;5053274;28;20782;-76
2022/07/23 05:53:12;;;;;;;8.77;6.50;;;21.60;1.00;;;;;;5060363;28;20452;-75
2022/07/23 05:55:38;;;;;;;7.73;6.30;;;21.60;1.00;;;;;;5059997;28;20406;-75
2022/07/23 05:58:09;;;;;;;10.30;7.30;;;21.60;1.00;;;;;;5059290;28;20255;-75
2022/07/23 06:00:39;;;;;;;9.87;7.30;;;21.60;1.00;;;;;;5059993;28;20937;-75
2022/07/23 06:03:09;;;;;;;8.20;6.77;;;21.70;1.00;;;;;;5056450;28;20432;-76
2022/07/23 06:05:39;;;;;;;11.43;7.03;;;21.70;1.00;;;;;;5059662;28;20954;-75
2022/07/23 06:08:09;;;;;;;10.63;7.80;;;21.70;1.00;;;;;;5040238;28;20780;-77
2022/07/23 06:10:39;;;;;;;9.43;7.13;;;21.70;1.00;;;;;;5057995;28;20415;-75
2022/07/23 06:13:09;;;;;;;8.10;6.53;;;21.60;1.00;;;;;;5059581;28;20470;-78
2022/07/23 06:15:45;;;;;;;11.70;7.50;;;21.60;1.00;;;;;;5047418;28;20993;-78
2022/07/23 06:18:15;;;;;;;8.43;6.43;;;21.50;1.00;;;;;;5059836;28;20406;-85
2022/07/23 06:21:03;;;;;;;9.10;7.10;;;21.60;1.00;;;;;;5059645;28;20398;-78
2022/07/23 06:23:33;;;;;;;10.50;6.60;;;21.60;1.00;;;;;;5047553;28;20413;-78
2022/07/23 06:25:59;;;;;;;9.83;7.03;;;21.60;1.00;;;;;;5039460;28;20448;-78
2022/07/23 06:28:27;;;;;;;9.67;6.40;;;21.60;1.00;;;;;;5052918;28;20411;-78
2022/07/23 06:31:03;;;;;;;10.83;6.30;;;21.70;1.00;;;;;;5050439;28;20175;-78
2022/07/23 06:33:33;;;;;;;9.17;6.60;;;21.70;1.00;;;;;;5040875;28;20910;-78
2022/07/23 06:36:09;;;;;;;8.93;6.33;;;21.80;1.00;;;;;;5055736;28;20459;-78
2022/07/23 06:38:35;;;;;;;6.90;5.90;;;21.90;1.00;;;;;;5049557;28;20412;-74
2022/07/23 06:41:03;;;;;;;11.80;6.10;;;22.00;1.00;;;;;;5052131;28;20775;-74
2022/07/23 06:43:31;;;;;;;7.97;5.77;;;22.00;1.00;;;;;;5056315;28;20184;-74
2022/07/23 06:45:56;;;;;;;9.97;6.40;;;22.10;1.00;;;;;;5056308;28;20452;-74
2022/07/23 06:48:28;;;;;;;11.40;5.40;;;22.20;1.00;;;;;;5055938;28;20418;-76
2022/07/23 06:51:38;;;;;;;6.63;5.83;;;22.30;1.00;;;;;;5054382;28;20199;-81
2022/07/23 06:54:04;;;;;;;13.80;5.97;;;22.40;1.00;;;;;;5041781;28;20434;-80
2022/07/23 06:56:50;;;;;;;6.50;5.23;;;22.60;1.00;;;;;;5038835;28;20414;-80
2022/07/23 06:59:16;;;;;;;9.13;6.00;;;22.70;1.00;;;;;;5049018;28;20411;-81
2022/07/23 07:01:42;;;;;;;9.00;5.77;;;22.80;1.00;;;;;;5050636;28;20409;-81
2022/07/23 07:04:09;;;;;;;8.40;6.17;;;23.00;1.00;;;;;;5053226;28;20206;-78
2022/07/23 07:06:45;;;;;;;9.27;5.07;;;23.10;1.00;;;;;;5054497;28;20675;-77
2022/07/23 07:09:15;;;;;;;8.17;5.50;;;23.40;1.00;;;;;;5042480;28;20472;-78
2022/07/23 07:11:51;;;;;;;9.60;5.83;;;23.50;1.00;;;;;;5046079;28;20422;-77
2022/07/23 07:14:17;;;;;;;6.90;5.17;;;23.50;1.00;;;;;;5039399;28;20419;-78
2022/07/23 07:16:51;;;;;;;6.33;4.83;;;23.60;1.00;;;;;;5047141;28;20432;-78
2022/07/23 07:19:33;;;;;;;10.40;5.40;;;23.70;1.00;;;;;;5055282;28;20176;-79
2022/07/23 07:22:38;;;;;;;9.93;4.93;;;23.80;1.00;;;;;;5055104;28;20786;-80
2022/07/23 07:25:06;;;;;;;8.13;5.60;;;24.00;1.00;;;;;;5047969;28;20456;-80
2022/07/23 07:27:32;;;;;;;7.23;5.23;;;24.20;1.00;;;;;;5041973;28;20408;-81
2022/07/23 07:29:57;;;;;;;8.37;5.40;;;24.40;1.00;;;;;;5054986;28;20413;-80
2022/07/23 07:32:39;;;;;;;6.27;4.47;;;24.50;1.00;;;;;;5052408;28;20424;-81
2022/07/23 07:35:06;;;;;;;9.73;5.20;;;24.60;1.00;;;;;;5054074;28;20206;-81
2022/07/23 07:37:32;;;;;;;5.90;4.67;;;24.70;1.00;;;;;;5035283;28;20425;-82
2022/07/23 07:40:27;;;;;;;5.10;4.43;;;24.80;1.00;;;;;;5049944;28;20851;-82
2022/07/23 07:46:38;;;;;;;5.00;4.50;;;24.50;1.00;;;;;;5047909;28;20568;-81
2022/07/23 07:49:44;;;;;;;6.70;4.30;;;24.50;1.00;;;;;;5054658;28;20417;-82
2022/07/23 07:52:15;;;;;;;6.47;4.30;;;24.50;1.00;;;;;;5052748;28;20429;-79
2022/07/23 07:54:45;;;;;;;5.17;4.57;;;24.50;1.00;;;;;;5041939;28;20961;-80
2022/07/23 07:57:21;;;;;;;5.10;4.67;;;24.60;1.00;;;;;;5044280;28;20893;-80
2022/07/23 08:00:06;;;;;;;5.73;4.93;;;24.60;1.00;;;;;;5053035;28;20926;-79
2022/07/23 08:03:20;;;;;;;4.90;4.50;;;24.70;1.00;;;;;;5052902;28;20417;-79
2022/07/23 08:06:09;;;;;;;7.90;4.67;;;24.70;1.00;;;;;;5053440;28;20514;-79
2022/07/23 08:08:45;;;;;;;8.80;4.73;;;24.70;1.00;;;;;;5045951;28;20896;-79
2022/07/23 08:11:51;;;;;;;15.67;5.07;;;24.80;1.00;;;;;;5052879;28;20413;-78
2022/07/23 08:18:09;;;;;;;5.37;4.83;;;25.10;1.00;;;;;;5052945;28;20453;-78
2022/07/23 08:20:45;;;;;;;7.23;4.60;;;25.30;1.00;;;;;;5052946;28;20422;-78
2022/07/23 08:23:19;;;;;;;5.40;4.80;;;25.60;1.00;;;;;;5054026;28;20447;-79
2022/07/23 08:25:46;;;;;;;7.20;4.97;;;25.80;1.00;;;;;;5054264;28;20445;-79
2022/07/23 08:28:21;;;;;;;6.97;6.27;;;26.00;1.00;;;;;;5054255;28;20988;-79
2022/07/23 08:31:05;;;;;;;6.60;4.53;;;26.20;1.00;;;;;;5052808;28;20988;-79
2022/07/23 08:33:31;;;;;;;6.07;4.67;;;26.20;1.00;;;;;;5051610;28;20427;-79
2022/07/23 08:36:09;;;;;;;9.33;4.67;;;26.10;1.00;;;;;;5043068;28;20443;-79
2022/07/23 08:38:51;;;;;;;4.67;4.13;;;26.10;1.00;;;;;;5036993;28;20185;-79
2022/07/23 08:41:21;;;;;;;5.43;4.90;;;26.20;1.00;;;;;;5040619;28;20752;-80
2022/07/23 08:44:00;;;;;;;4.90;4.23;;;26.20;1.00;;;;;;5049826;28;20949;-80
2022/07/23 08:46:27;;;;;;;7.37;5.00;;;26.40;1.00;;;;;;5052193;28;20455;-79
2022/07/23 08:48:57;;;;;;;5.20;4.70;;;26.30;1.00;;;;;;5043007;28;20913;-79
2022/07/23 08:51:26;;;;;;;5.20;4.70;;;26.30;1.00;;;;;;5050335;28;20423;-80
2022/07/23 08:53:57;;;;;;;11.30;5.17;;;26.20;1.00;;;;;;5046707;28;20419;-79
2022/07/23 08:56:27;;;;;;;6.10;4.67;;;26.20;1.00;;;;;;5052052;28;20946;-79
2022/07/23 08:58:57;;;;;;;10.77;4.73;;;26.40;1.00;;;;;;5043861;28;20805;-80
2022/07/23 09:01:23;;;;;;;5.40;4.80;;;26.50;1.00;;;;;;5048528;28;20418;-80
2022/07/23 09:04:03;;;;;;;4.83;4.30;;;26.60;1.00;;;;;;5049914;28;20930;-80
2022/07/23 09:06:51;;;;;;;4.77;4.30;;;26.50;1.00;;;;;;5040751;28;20202;-79
2022/07/23 09:09:20;;;;;;;6.00;4.47;;;26.40;1.00;;;;;;5052408;28;21191;-79
2022/07/23 09:12:04;;;;;;;5.40;4.90;;;26.50;1.00;;;;;;5052708;28;20431;-80
2022/07/23 09:14:46;;;;;;;6.83;4.90;;;26.20;1.00;;;;;;5051651;28;20563;-81
2022/07/23 09:21:09;;;;;;;4.70;4.30;;;26.40;1.00;;;;;;5044797;28;20391;-81
2022/07/23 09:24:07;;;;;;;5.37;4.87;;;26.70;1.00;;;;;;5053174;28;20414;-80
2022/07/23 09:26:51;;;;;;;5.70;4.40;;;27.00;1.00;;;;;;4991981;28;20472;-79
2022/07/23 09:29:18;;;;;;;6.00;4.23;;;27.10;1.00;;;;;;4992017;28;20399;-81
2022/07/23 09:32:05;;;;;;;4.80;4.30;;;27.30;1.00;;;;;;4991521;28;20807;-82
2022/07/23 09:34:40;;;;;;;4.67;4.20;;;27.60;1.00;;;;;;4991123;28;20464;-80
2022/07/23 09:37:16;;;;;;;5.70;4.60;;;27.70;1.00;;;;;;4992059;28;20417;-82
2022/07/23 09:40:17;;;;;;;7.57;5.30;;;27.90;1.00;;;;;;4991991;28;20848;-80
2022/07/23 09:43:12;;;;;;;5.57;4.97;;;27.90;1.00;;;;;;4984784;28;20462;-79
2022/07/23 09:45:39;;;;;;;19.03;4.57;;;27.90;1.00;;;;;;4989649;28;20915;-80
2022/07/23 09:48:33;;;;;;;5.30;4.60;;;28.00;1.00;;;;;;4975495;28;20428;-80
2022/07/23 09:51:09;;;;;;;7.77;4.73;;;28.10;1.00;;;;;;4980412;28;20424;-78
2022/07/23 09:53:39;;;;;;;6.13;4.53;;;28.20;1.00;;;;;;4983253;28;20430;-78
2022/07/23 09:56:17;;;;;;;6.30;5.20;;;28.40;1.00;;;;;;4991321;28;20428;-79
2022/07/23 09:58:49;;;;;;;6.87;5.00;;;28.60;1.00;;;;;;4991976;28;20421;-80
2022/07/23 10:01:28;;;;;;;8.13;4.43;;;28.80;1.00;;;;;;4984218;28;20427;-79
2022/07/23 10:04:11;;;;;;;4.90;4.50;;;29.10;1.00;;;;;;5041295;28;20426;-81
2022/07/23 10:06:40;;;;;;;7.50;5.03;;;29.20;1.00;;;;;;5052930;28;20478;-80
2022/07/23 10:09:45;;;;;;;5.80;5.30;;;29.30;1.00;;;;;;5051537;28;20868;-80
2022/07/23 10:15:09;;;;;;;5.53;4.90;;;29.00;1.00;;;;;;5052883;28;20432;-82
2022/07/23 10:18:14;;;;;;;5.90;5.03;;;28.70;1.00;;;;;;5056726;28;20783;-83
2022/07/23 10:21:06;;;;;;;5.03;4.60;;;28.30;1.00;;;;;;5043211;28;20417;-83
2022/07/23 10:23:50;;;;;;;7.60;5.40;;;28.30;1.00;;;;;;5055404;28;20432;-83
2022/07/23 10:26:41;;;;;;;5.20;4.80;;;28.30;1.00;;;;;;5045970;28;20817;-81
2022/07/23 10:29:56;;;;;;;13.37;5.77;;;28.20;1.00;;;;;;5036570;28;20382;-80
2022/07/23 10:32:50;;;;;;;7.63;5.33;;;28.20;1.00;;;;;;5056068;28;20421;-81
2022/07/23 10:35:43;;;;;;;8.57;5.50;;;28.20;1.00;;;;;;5051642;28;20488;-80
2022/07/23 10:38:21;;;;;;;6.77;6.07;;;28.20;1.00;;;;;;5036378;28;20490;-81
2022/07/23 10:41:04;;;;;;;5.90;5.30;;;28.30;1.00;;;;;;5045400;28;20565;-82
2022/07/23 10:44:23;;;;;;;7.00;4.77;;;28.30;1.00;;;;;;5056219;28;20399;-84
2022/07/23 10:50:57;;;;;;;8.20;5.57;;;28.80;1.00;;;;;;5054454;28;20913;-81
2022/07/23 10:53:54;;;;;;;6.47;5.20;;;28.90;1.00;;;;;;5038322;28;20441;-83
2022/07/23 10:56:57;;;;;;;7.27;4.87;;;29.10;1.00;;;;;;5041720;28;20428;-80
2022/07/23 11:00:00;;;;;;;5.70;5.20;;;29.30;1.00;;;;;;5042889;28;20439;-80
2022/07/23 11:02:34;;;;;;;6.10;5.50;;;29.20;1.00;;;;;;5040793;28;20429;-80
2022/07/23 11:05:15;;;;;;;4.90;4.40;;;29.30;1.00;;;;;;5053523;28;21028;-79
2022/07/23 11:08:14;;;;;;;8.73;6.00;;;29.20;1.00;;;;;;5055398;28;20423;-76
2022/07/23 11:10:52;;;;;;;5.93;5.33;;;29.20;1.00;;;;;;4994396;28;20920;-76
2022/07/23 11:13:32;;;;;;;5.37;4.90;;;29.40;1.00;;;;;;4985203;28;20417;-75
2022/07/23 11:16:08;;;;;;;5.63;5.07;;;29.50;1.00;;;;;;5003570;28;20484;-76
2022/07/23 11:18:57;;;;;;;7.03;5.10;;;29.60;1.00;;;;;;4993697;28;20505;-76
2022/07/23 11:21:36;;;;;;;4.53;4.13;;;29.60;1.00;;;;;;4993669;28;20441;-76
2022/07/23 11:24:16;;;;;;;8.97;5.30;;;29.70;1.00;;;;;;4990007;28;20428;-76
2022/07/23 11:26:52;;;;;;;5.43;4.90;;;29.70;1.00;;;;;;4984922;28;20475;-75
2022/07/23 11:29:35;;;;;;;10.50;5.20;;;29.80;1.00;;;;;;4992962;28;20434;-76
2022/07/23 11:32:22;;;;;;;8.83;5.77;;;30.00;1.00;;;;;;4993963;28;20448;-75
2022/07/23 11:34:49;;;;;;;8.60;5.83;;;30.20;1.00;;;;;;4977236;28;20467;-75
2022/07/23 11:37:38;;;;;;;6.23;5.63;;;30.50;1.00;;;;;;4993345;28;20487;-75
2022/07/23 11:40:09;;;;;;;5.50;4.90;;;30.60;1.00;;;;;;4980584;28;20553;-75
2022/07/23 11:42:53;;;;;;;6.50;4.53;;;30.30;1.00;;;;;;4994116;28;20425;-76
2022/07/23 11:45:23;;;;;;;7.47;5.33;;;30.40;1.00;;;;;;4993732;28;20460;-76
2022/07/23 11:47:49;;;;;;;5.53;4.33;;;30.60;1.00;;;;;;5040014;28;20426;-76
2022/07/23 11:50:39;;;;;;;5.70;5.20;;;30.60;1.00;;;;;;5043613;28;20959;-76
2022/07/23 11:53:04;;;;;;;11.63;4.97;;;30.40;1.00;;;;;;5041102;28;20169;-76
2022/07/23 11:55:30;;;;;;;7.03;5.00;;;30.40;1.00;;;;;;5040611;28;20419;-76
2022/07/23 11:58:03;;;;;;;6.37;4.90;;;30.60;1.00;;;;;;5042760;28;20309;-77
2022/07/23 12:00:45;;;;;;;5.37;4.87;;;30.70;1.00;;;;;;5051622;28;20461;-77
2022/07/23 12:03:11;;;;;;;6.30;5.40;;;30.70;1.00;;;;;;5063135;28;20433;-75
2022/07/23 12:05:45;;;;;;;5.03;4.53;;;30.50;1.00;;;;;;5053861;28;20458;-76
2022/07/23 12:08:15;;;;;;;5.97;5.40;;;30.50;1.00;;;;;;5042944;28;20190;-76
2022/07/23 12:10:45;;;;;;;6.20;5.17;;;30.30;1.00;;;;;;5049687;28;20751;-75
2022/07/23 12:13:18;;;;;;;6.73;5.10;;;30.40;1.00;;;;;;5045422;28;20502;-77
2022/07/23 12:16:26;;;;;;;5.80;5.07;;;30.60;1.00;;;;;;5056230;28;20495;-77
2022/07/23 12:19:03;;;;;;;5.27;4.77;;;30.60;1.00;;;;;;5040531;28;20418;-77
2022/07/23 12:21:39;;;;;;;6.80;4.27;;;30.50;1.00;;;;;;5043367;28;20434;-77
2022/07/23 12:24:08;;;;;;;6.30;5.27;;;30.50;1.00;;;;;;5036519;28;20674;-77
2022/07/23 12:27:09;;;;;;;8.60;5.30;;;30.70;1.00;;;;;;5054479;28;20855;-78
2022/07/23 12:30:27;;;;;;;5.50;5.00;;;30.90;1.00;;;;;;5034428;28;20598;-80
2022/07/23 12:32:55;;;;;;;6.90;4.90;;;30.90;1.00;;;;;;5045325;28;20413;-77
2022/07/23 12:35:23;;;;;;;6.00;5.40;;;31.20;1.00;;;;;;5046559;28;20454;-77
2022/07/23 12:37:52;;;;;;;6.17;5.30;;;31.00;1.00;;;;;;5041679;28;20762;-77
2022/07/23 12:40:32;;;;;;;8.07;5.20;;;30.80;1.00;;;;;;5039451;28;20418;-77
2022/07/23 12:43:00;;;;;;;5.17;4.73;;;30.80;1.00;;;;;;5040752;28;20917;-74
2022/07/23 12:45:40;;;;;;;7.13;4.90;;;31.00;1.00;;;;;;5053519;28;20599;-74
2022/07/23 12:48:07;;;;;;;6.50;5.10;;;31.30;1.00;;;;;;5053463;28;20422;-75
2022/07/23 12:50:52;;;;;;;5.17;4.67;;;31.60;1.00;;;;;;5053854;28;20960;-75
2022/07/23 12:53:30;;;;;;;4.63;4.23;;;31.90;1.00;;;;;;5047396;28;20922;-74
2022/07/23 12:56:05;;;;;;;4.90;4.40;;;32.10;1.00;;;;;;5035632;28;20981;-75
2022/07/23 12:58:45;;;;;;;5.33;4.70;;;32.30;1.00;;;;;;5047566;28;20445;-75
2022/07/23 13:01:42;;;;;;;5.70;5.00;;;32.50;1.00;;;;;;5039001;28;20485;-75
2022/07/23 13:04:09;;;;;;;5.10;4.60;;;32.80;1.00;;;;;;5032894;28;20423;-75
2022/07/23 13:06:37;;;;;;;4.40;4.00;;;32.90;1.00;;;;;;5053379;28;20544;-75
2022/07/23 13:12:24;;;;;;;8.20;5.10;;;32.70;1.00;;;;;;5053351;28;20468;-79
2022/07/23 13:15:03;;;;;;;5.33;4.83;;;32.70;1.00;;;;;;5052898;28;20450;-78
2022/07/23 13:17:47;;;;;;;5.70;4.40;;;32.50;1.00;;;;;;5034308;28;20184;-79
2022/07/23 13:20:39;;;;;;;4.73;4.33;;;32.50;1.00;;;;;;5037078;28;20421;-79
2022/07/23 13:23:07;;;;;;;6.73;4.40;;;32.60;1.00;;;;;;5043314;28;20447;-79
2022/07/23 13:25:39;;;;;;;4.87;4.37;;;32.70;1.00;;;;;;5052816;28;20457;-79
2022/07/23 13:28:51;;;;;;;5.30;4.80;;;32.90;1.00;;;;;;5042540;28;20410;-83
2022/07/23 13:31:17;;;;;;;4.77;4.37;;;33.20;1.00;;;;;;5044138;28;20413;-83
2022/07/23 13:34:06;;;;;;;5.40;4.13;;;33.40;1.00;;;;;;5049611;28;20469;-83
2022/07/23 13:36:39;;;;;;;5.17;4.60;;;33.50;1.00;;;;;;5051909;28;20438;-83
2022/07/23 13:39:15;;;;;;;5.37;4.70;;;33.40;1.00;;;;;;5049950;28;20775;-82
2022/07/23 13:45:04;;;;;;;5.47;4.33;;;32.70;1.00;;;;;;5055535;28;20482;-86
2022/07/23 13:47:45;;;;;;;6.47;5.07;;;33.20;1.00;;;;;;5038522;28;20893;-85
2022/07/23 13:50:21;;;;;;;4.93;4.37;;;32.90;1.00;;;;;;5050426;28;20920;-85
2022/07/23 13:56:27;;;;;;;10.93;4.80;;;32.70;1.00;;;;;;5044923;28;20405;-83
2022/07/23 13:58:57;;;;;;;7.47;4.83;;;32.40;1.00;;;;;;5043107;28;20865;-76
2022/07/23 14:01:23;;;;;;;5.37;4.83;;;32.50;1.00;;;;;;5044852;28;20501;-76
2022/07/23 14:03:57;;;;;;;7.80;5.00;;;32.50;1.00;;;;;;5067392;28;20571;-79
2022/07/23 14:06:33;;;;;;;6.00;5.40;;;32.70;1.00;;;;;;5053557;28;20204;-78